sensor_id;sensor_type;location;lat;lon;timestamp;temperature;humidity
2565;DHT22;1292;48.020;7.822;2023-01-31T06:45:24;-1.00;99.90
2565;DHT22;1292;48.020;7.822;2023-01-31T06:47:51;-1.00;99.90
2565;DHT22;1292;48.020;7.822;2023-01-31T06:50:18;-1.00;99.90
2565;DHT22;1292;48.020;7.822;2023-01-31T06:52:45;-0.90;99.90
2565;DHT22;1292;48.020;7.822;2023-01-31T06:55:12;-1.00;99.90
2565;DHT22;1292;48.020;7.822;2023-01-31T06:57:45;-1.00;99.90
2565;DHT22;1292;48.020;7.822;2023-01-31T07:00:13;-1.00;99.90
2565;DHT22;1292;48.020;7.822;2023-01-31T07:02:41;-1.00;99.90
2565;DHT22;1292;48.020;7.822;2023-01-31T07:05:09;-0.90;99.90
2565;DHT22;1292;48.020;7.822;2023-01-31T07:07:35;-0.90;99.90
2565;DHT22;1292;48.020;7.822;2023-01-31T07:10:03;-1.00;99.90
2565;DHT22;1292;48.020;7.822;2023-01-31T07:12:29;-1.20;99.90
2565;DHT22;1292;48.020;7.822;2023-01-31T07:14:56;-1.20;99.90
2565;DHT22;1292;48.020;7.822;2023-01-31T07:17:23;-1.00;99.90
2565;DHT22;1292;48.020;7.822;2023-01-31T07:19:51;-0.90;99.90
2565;DHT22;1292;48.020;7.822;2023-01-31T07:22:18;-0.80;99.90
2565;DHT22;1292;48.020;7.822;2023-01-31T07:24:45;-0.90;99.90
2565;DHT22;1292;48.020;7.822;2023-01-31T07:27:14;-0.90;99.90
2565;DHT22;1292;48.020;7.822;2023-01-31T07:29:41;-0.90;99.90
2565;DHT22;1292;48.020;7.822;2023-01-31T07:32:08;-0.80;99.90
2565;DHT22;1292;48.020;7.822;2023-01-31T07:34:35;-0.70;99.90
2565;DHT22;1292;48.020;7.822;2023-01-31T07:37:03;-0.70;99.90
2565;DHT22;1292;48.020;7.822;2023-01-31T07:39:30;-0.70;99.90
2565;DHT22;1292;48.020;7.822;2023-01-31T07:41:57;-0.70;99.90
2565;DHT22;1292;48.020;7.822;2023-01-31T07:44:23;-0.60;99.90
2565;DHT22;1292;48.020;7.822;2023-01-31T07:46:50;-0.70;99.90
2565;DHT22;1292;48.020;7.822;2023-01-31T07:49:19;-0.70;99.90
2565;DHT22;1292;48.020;7.822;2023-01-31T07:51:46;-0.50;99.90
2565;DHT22;1292;48.020;7.822;2023-01-31T07:54:14;-0.60;99.90
2565;DHT22;1292;48.020;7.822;2023-01-31T07:56:41;-0.50;99.90
2565;DHT22;1292;48.020;7.822;2023-01-31T07:59:07;-0.40;99.90
2565;DHT22;1292;48.020;7.822;2023-01-31T08:01:34;-0.30;99.90
2565;DHT22;1292;48.020;7.822;2023-01-31T08:04:19;-0.30;99.90
2565;DHT22;1292;48.020;7.822;2023-01-31T08:06:46;-0.30;99.90
2565;DHT22;1292;48.020;7.822;2023-01-31T08:09:15;-0.20;99.90
2565;DHT22;1292;48.020;7.822;2023-01-31T08:11:41;-0.10;99.90
2565;DHT22;1292;48.020;7.822;2023-01-31T08:14:08;0.00;99.90
2565;DHT22;1292;48.020;7.822;2023-01-31T08:16:35;0.10;99.90
2565;DHT22;1292;48.020;7.822;2023-01-31T08:19:02;0.20;99.90
2565;DHT22;1292;48.020;7.822;2023-01-31T08:21:29;0.20;99.90
2565;DHT22;1292;48.020;7.822;2023-01-31T08:23:56;0.20;99.90
2565;DHT22;1292;48.020;7.822;2023-01-31T08:26:24;0.20;99.90
2565;DHT22;1292;48.020;7.822;2023-01-31T08:28:52;0.20;99.90
2565;DHT22;1292;48.020;7.822;2023-01-31T08:31:20;0.30;99.90
2565;DHT22;1292;48.020;7.822;2023-01-31T08:33:48;0.40;99.90
2565;DHT22;1292;48.020;7.822;2023-01-31T08:36:19;0.40;99.90
2565;DHT22;1292;48.020;7.822;2023-01-31T08:38:47;0.60;99.90
2565;DHT22;1292;48.020;7.822;2023-01-31T08:41:15;0.60;99.90
2565;DHT22;1292;48.020;7.822;2023-01-31T08:43:43;0.70;99.90
2565;DHT22;1292;48.020;7.822;2023-01-31T08:46:11;0.80;99.90
2565;DHT22;1292;48.020;7.822;2023-01-31T08:48:38;0.90;99.90
2565;DHT22;1292;48.020;7.822;2023-01-31T08:51:07;1.00;99.90
2565;DHT22;1292;48.020;7.822;2023-01-31T08:53:37;1.10;99.90
2565;DHT22;1292;48.020;7.822;2023-01-31T08:56:06;1.20;99.90
2565;DHT22;1292;48.020;7.822;2023-01-31T08:58:34;1.30;99.90
2565;DHT22;1292;48.020;7.822;2023-01-31T09:01:04;1.40;99.90
2565;DHT22;1292;48.020;7.822;2023-01-31T09:03:31;1.50;99.90
2565;DHT22;1292;48.020;7.822;2023-01-31T09:05:59;1.50;99.90
2565;DHT22;1292;48.020;7.822;2023-01-31T09:08:26;1.60;99.90
2565;DHT22;1292;48.020;7.822;2023-01-31T09:10:53;1.70;99.90
2565;DHT22;1292;48.020;7.822;2023-01-31T09:13:21;1.70;99.90
2565;DHT22;1292;48.020;7.822;2023-01-31T09:15:56;1.80;99.90
2565;DHT22;1292;48.020;7.822;2023-01-31T09:18:25;1.80;99.90
2565;DHT22;1292;48.020;7.822;2023-01-31T09:20:52;1.80;99.90
2565;DHT22;1292;48.020;7.822;2023-01-31T09:23:19;1.80;99.90
2565;DHT22;1292;48.020;7.822;2023-01-31T09:25:52;1.90;99.90
2565;DHT22;1292;48.020;7.822;2023-01-31T09:28:20;2.00;99.90
2565;DHT22;1292;48.020;7.822;2023-01-31T09:30:48;1.90;99.90
2565;DHT22;1292;48.020;7.822;2023-01-31T09:33:19;2.10;99.90
2565;DHT22;1292;48.020;7.822;2023-01-31T09:35:57;2.10;99.90
2565;DHT22;1292;48.020;7.822;2023-01-31T09:38:26;2.20;99.90
2565;DHT22;1292;48.020;7.822;2023-01-31T09:40:55;2.20;99.90
2565;DHT22;1292;48.020;7.822;2023-01-31T09:43:24;2.30;99.90
2565;DHT22;1292;48.020;7.822;2023-01-31T09:45:55;2.40;99.90
2565;DHT22;1292;48.020;7.822;2023-01-31T09:48:25;2.50;99.90
2565;DHT22;1292;48.020;7.822;2023-01-31T09:50:57;2.50;99.90
2565;DHT22;1292;48.020;7.822;2023-01-31T09:53:28;2.60;99.90
2565;DHT22;1292;48.020;7.822;2023-01-31T09:56:10;2.60;99.90
2565;DHT22;1292;48.020;7.822;2023-01-31T09:58:45;2.60;99.90
2565;DHT22;1292;48.020;7.822;2023-01-31T10:01:20;2.70;99.90
2565;DHT22;1292;48.020;7.822;2023-01-31T10:03:58;2.80;99.90
2565;DHT22;1292;48.020;7.822;2023-01-31T10:06:32;2.90;99.90
2565;DHT22;1292;48.020;7.822;2023-01-31T10:09:03;3.00;99.90
2565;DHT22;1292;48.020;7.822;2023-01-31T10:11:38;3.20;99.90
2565;DHT22;1292;48.020;7.822;2023-01-31T10:14:17;3.30;99.90
2565;DHT22;1292;48.020;7.822;2023-01-31T10:16:54;3.40;99.90
2565;DHT22;1292;48.020;7.822;2023-01-31T10:19:24;3.40;99.90
2565;DHT22;1292;48.020;7.822;2023-01-31T10:21:56;3.50;99.90
2565;DHT22;1292;48.020;7.822;2023-01-31T10:24:29;3.50;99.90
2565;DHT22;1292;48.020;7.822;2023-01-31T10:27:04;3.60;99.90
2565;DHT22;1292;48.020;7.822;2023-01-31T10:29:36;3.70;99.90
2565;DHT22;1292;48.020;7.822;2023-01-31T10:32:07;3.90;99.90
2565;DHT22;1292;48.020;7.822;2023-01-31T10:34:41;4.00;99.90
2565;DHT22;1292;48.020;7.822;2023-01-31T10:37:14;3.90;99.90
2565;DHT22;1292;48.020;7.822;2023-01-31T10:39:47;3.90;99.90
2565;DHT22;1292;48.020;7.822;2023-01-31T10:42:21;4.00;99.90
2565;DHT22;1292;48.020;7.822;2023-01-31T10:44:54;4.00;99.90
2565;DHT22;1292;48.020;7.822;2023-01-31T10:47:31;4.00;99.90
2565;DHT22;1292;48.020;7.822;2023-01-31T10:49:58;4.00;99.90
2565;DHT22;1292;48.020;7.822;2023-01-31T10:52:39;4.10;99.90
2565;DHT22;1292;48.020;7.822;2023-01-31T10:55:37;4.10;99.90
2565;DHT22;1292;48.020;7.822;2023-01-31T10:58:10;4.10;99.90
2565;DHT22;1292;48.020;7.822;2023-01-31T11:00:37;4.20;99.90
2565;DHT22;1292;48.020;7.822;2023-01-31T11:03:04;4.10;99.90
2565;DHT22;1292;48.020;7.822;2023-01-31T11:05:31;4.20;99.90
2565;DHT22;1292;48.020;7.822;2023-01-31T11:08:00;4.20;99.90
2565;DHT22;1292;48.020;7.822;2023-01-31T11:10:30;4.30;99.90
2565;DHT22;1292;48.020;7.822;2023-01-31T11:12:58;4.40;99.90
2565;DHT22;1292;48.020;7.822;2023-01-31T11:15:28;4.60;99.90
2565;DHT22;1292;48.020;7.822;2023-01-31T11:18:01;4.70;99.90
2565;DHT22;1292;48.020;7.822;2023-01-31T11:20:29;4.70;99.90
2565;DHT22;1292;48.020;7.822;2023-01-31T11:22:59;4.80;99.90
2565;DHT22;1292;48.020;7.822;2023-01-31T11:25:28;4.80;99.90
2565;DHT22;1292;48.020;7.822;2023-01-31T11:27:58;4.90;99.90
2565;DHT22;1292;48.020;7.822;2023-01-31T11:30:28;4.90;99.90
2565;DHT22;1292;48.020;7.822;2023-01-31T11:32:55;4.90;99.90
2565;DHT22;1292;48.020;7.822;2023-01-31T11:35:26;5.10;99.90
2565;DHT22;1292;48.020;7.822;2023-01-31T11:37:54;5.20;99.90
2565;DHT22;1292;48.020;7.822;2023-01-31T11:40:27;5.30;99.90
2565;DHT22;1292;48.020;7.822;2023-01-31T11:42:56;5.30;99.90
2565;DHT22;1292;48.020;7.822;2023-01-31T11:45:24;5.50;99.90
2565;DHT22;1292;48.020;7.822;2023-01-31T11:47:54;5.50;99.90
2565;DHT22;1292;48.020;7.822;2023-01-31T11:50:23;5.50;99.90
2565;DHT22;1292;48.020;7.822;2023-01-31T11:52:56;5.40;99.90
2565;DHT22;1292;48.020;7.822;2023-01-31T11:55:25;5.50;99.90
2565;DHT22;1292;48.020;7.822;2023-01-31T11:57:55;5.50;99.90
2565;DHT22;1292;48.020;7.822;2023-01-31T12:00:25;5.50;99.90
2565;DHT22;1292;48.020;7.822;2023-01-31T12:03:01;5.60;99.90
2565;DHT22;1292;48.020;7.822;2023-01-31T12:05:34;5.70;99.90
2565;DHT22;1292;48.020;7.822;2023-01-31T12:08:02;5.70;99.90
2565;DHT22;1292;48.020;7.822;2023-01-31T12:10:41;5.70;99.90
2565;DHT22;1292;48.020;7.822;2023-01-31T12:13:14;5.70;99.90
2565;DHT22;1292;48.020;7.822;2023-01-31T12:15:56;5.80;99.90
2565;DHT22;1292;48.020;7.822;2023-01-31T12:18:46;5.90;99.90
2565;DHT22;1292;48.020;7.822;2023-01-31T12:21:19;6.00;99.90
2565;DHT22;1292;48.020;7.822;2023-01-31T12:23:57;6.10;99.90
2565;DHT22;1292;48.020;7.822;2023-01-31T12:26:36;6.10;99.90
2565;DHT22;1292;48.020;7.822;2023-01-31T12:29:16;6.10;99.90
2565;DHT22;1292;48.020;7.822;2023-01-31T12:32:02;6.00;99.90
2565;DHT22;1292;48.020;7.822;2023-01-31T12:34:40;6.00;99.90
2565;DHT22;1292;48.020;7.822;2023-01-31T12:37:22;5.90;99.90
2565;DHT22;1292;48.020;7.822;2023-01-31T12:40:07;6.00;99.90
2565;DHT22;1292;48.020;7.822;2023-01-31T12:42:53;6.00;99.90
2565;DHT22;1292;48.020;7.822;2023-01-31T12:45:38;6.00;99.90
2565;DHT22;1292;48.020;7.822;2023-01-31T12:48:32;6.00;99.90
2565;DHT22;1292;48.020;7.822;2023-01-31T12:51:16;6.10;99.90
2565;DHT22;1292;48.020;7.822;2023-01-31T12:53:54;6.10;99.90
2565;DHT22;1292;48.020;7.822;2023-01-31T12:56:42;6.20;99.90
2565;DHT22;1292;48.020;7.822;2023-01-31T12:59:23;6.20;99.90
2565;DHT22;1292;48.020;7.822;2023-01-31T13:01:58;6.20;99.90
2565;DHT22;1292;48.020;7.822;2023-01-31T13:04:32;6.20;99.90
2565;DHT22;1292;48.020;7.822;2023-01-31T13:07:03;6.20;99.90
2565;DHT22;1292;48.020;7.822;2023-01-31T13:09:32;6.20;99.90
2565;DHT22;1292;48.020;7.822;2023-01-31T13:12:05;6.20;99.90
2565;DHT22;1292;48.020;7.822;2023-01-31T13:14:37;6.30;99.90
2565;DHT22;1292;48.020;7.822;2023-01-31T13:17:09;6.30;99.90
2565;DHT22;1292;48.020;7.822;2023-01-31T13:19:41;6.40;99.90
2565;DHT22;1292;48.020;7.822;2023-01-31T13:22:13;6.40;99.90
2565;DHT22;1292;48.020;7.822;2023-01-31T13:24:45;6.50;99.90
2565;DHT22;1292;48.020;7.822;2023-01-31T13:27:18;6.40;99.90
2565;DHT22;1292;48.020;7.822;2023-01-31T13:29:54;6.50;99.90
2565;DHT22;1292;48.020;7.822;2023-01-31T13:32:27;6.40;99.90
2565;DHT22;1292;48.020;7.822;2023-01-31T13:34:58;6.40;99.90
2565;DHT22;1292;48.020;7.822;2023-01-31T13:37:27;6.40;99.90
2565;DHT22;1292;48.020;7.822;2023-01-31T13:40:00;6.40;99.90
2565;DHT22;1292;48.020;7.822;2023-01-31T13:42:28;6.40;99.90
2565;DHT22;1292;48.020;7.822;2023-01-31T13:45:02;6.40;99.90
2565;DHT22;1292;48.020;7.822;2023-01-31T13:47:32;6.40;99.90
2565;DHT22;1292;48.020;7.822;2023-01-31T13:50:08;6.40;99.90
2565;DHT22;1292;48.020;7.822;2023-01-31T13:52:43;6.40;99.90
2565;DHT22;1292;48.020;7.822;2023-01-31T13:55:16;6.40;99.90
2565;DHT22;1292;48.020;7.822;2023-01-31T13:57:51;6.50;99.90
2565;DHT22;1292;48.020;7.822;2023-01-31T14:00:32;6.30;99.90
2565;DHT22;1292;48.020;7.822;2023-01-31T14:03:04;6.40;99.90
2565;DHT22;1292;48.020;7.822;2023-01-31T14:05:56;6.50;99.90
2565;DHT22;1292;48.020;7.822;2023-01-31T14:08:57;6.60;99.90
2565;DHT22;1292;48.020;7.822;2023-01-31T14:11:41;6.60;99.90
2565;DHT22;1292;48.020;7.822;2023-01-31T14:14:36;6.60;99.90
2565;DHT22;1292;48.020;7.822;2023-01-31T14:17:10;6.70;99.90
2565;DHT22;1292;48.020;7.822;2023-01-31T14:20:03;6.70;99.90
2565;DHT22;1292;48.020;7.822;2023-01-31T14:22:31;6.60;99.90
2565;DHT22;1292;48.020;7.822;2023-01-31T14:25:00;6.60;99.90
2565;DHT22;1292;48.020;7.822;2023-01-31T14:27:35;6.70;99.90
2565;DHT22;1292;48.020;7.822;2023-01-31T14:30:34;6.60;99.90
2565;DHT22;1292;48.020;7.822;2023-01-31T14:33:18;6.60;99.90
2565;DHT22;1292;48.020;7.822;2023-01-31T14:38:56;6.40;99.90
2565;DHT22;1292;48.020;7.822;2023-01-31T14:41:35;6.30;99.90
2565;DHT22;1292;48.020;7.822;2023-01-31T14:44:16;6.20;99.90
2565;DHT22;1292;48.020;7.822;2023-01-31T14:47:12;6.20;99.90
2565;DHT22;1292;48.020;7.822;2023-01-31T14:53:03;6.20;99.90
2565;DHT22;1292;48.020;7.822;2023-01-31T14:55:40;6.20;99.90
2565;DHT22;1292;48.020;7.822;2023-01-31T14:58:14;6.20;99.90
2565;DHT22;1292;48.020;7.822;2023-01-31T15:00:47;6.20;99.90
2565;DHT22;1292;48.020;7.822;2023-01-31T15:03:17;6.30;99.90
2565;DHT22;1292;48.020;7.822;2023-01-31T15:05:47;6.20;99.90
2565;DHT22;1292;48.020;7.822;2023-01-31T15:08:40;6.20;99.90
2565;DHT22;1292;48.020;7.822;2023-01-31T15:11:36;6.20;99.90
2565;DHT22;1292;48.020;7.822;2023-01-31T15:14:19;6.20;99.90
2565;DHT22;1292;48.020;7.822;2023-01-31T15:16:54;6.10;99.90
2565;DHT22;1292;48.020;7.822;2023-01-31T15:19:23;6.10;99.90
2565;DHT22;1292;48.020;7.822;2023-01-31T15:21:53;6.00;99.90
2565;DHT22;1292;48.020;7.822;2023-01-31T15:24:24;6.00;99.90
2565;DHT22;1292;48.020;7.822;2023-01-31T15:26:53;6.00;99.90
2565;DHT22;1292;48.020;7.822;2023-01-31T15:29:23;6.00;99.90
2565;DHT22;1292;48.020;7.822;2023-01-31T15:31:53;6.10;99.90
2565;DHT22;1292;48.020;7.822;2023-01-31T15:34:27;6.10;99.90
2565;DHT22;1292;48.020;7.822;2023-01-31T15:37:01;6.00;99.90
2565;DHT22;1292;48.020;7.822;2023-01-31T15:39:35;6.00;99.90
2565;DHT22;1292;48.020;7.822;2023-01-31T15:42:20;6.00;99.90
2565;DHT22;1292;48.020;7.822;2023-01-31T15:44:47;6.00;99.90
2565;DHT22;1292;48.020;7.822;2023-01-31T15:47:19;6.00;99.90
2565;DHT22;1292;48.020;7.822;2023-01-31T15:49:46;6.00;99.90
2565;DHT22;1292;48.020;7.822;2023-01-31T15:52:15;6.10;99.90
2565;DHT22;1292;48.020;7.822;2023-01-31T15:54:55;6.00;99.90
2565;DHT22;1292;48.020;7.822;2023-01-31T15:57:26;6.00;99.90
2565;DHT22;1292;48.020;7.822;2023-01-31T15:59:55;6.00;99.90
2565;DHT22;1292;48.020;7.822;2023-01-31T16:02:33;6.00;99.90
2565;DHT22;1292;48.020;7.822;2023-01-31T16:05:21;5.90;99.90
2565;DHT22;1292;48.020;7.822;2023-01-31T16:07:49;5.90;99.90
2565;DHT22;1292;48.020;7.822;2023-01-31T16:10:17;5.80;99.90
2565;DHT22;1292;48.020;7.822;2023-01-31T16:12:46;5.80;99.90
2565;DHT22;1292;48.020;7.822;2023-01-31T16:15:19;5.80;99.90
2565;DHT22;1292;48.020;7.822;2023-01-31T16:17:47;5.80;99.90
2565;DHT22;1292;48.020;7.822;2023-01-31T16:20:39;5.80;99.90
2565;DHT22;1292;48.020;7.822;2023-01-31T16:23:26;5.70;99.90
2565;DHT22;1292;48.020;7.822;2023-01-31T16:25:58;5.80;99.90
2565;DHT22;1292;48.020;7.822;2023-01-31T16:28:27;5.80;99.90
2565;DHT22;1292;48.020;7.822;2023-01-31T16:31:03;5.80;99.90
2565;DHT22;1292;48.020;7.822;2023-01-31T16:33:31;5.80;99.90
2565;DHT22;1292;48.020;7.822;2023-01-31T16:36:06;5.90;99.90
2565;DHT22;1292;48.020;7.822;2023-01-31T16:38:35;5.80;99.90
2565;DHT22;1292;48.020;7.822;2023-01-31T16:41:40;5.80;99.90
2565;DHT22;1292;48.020;7.822;2023-01-31T16:44:24;5.70;99.90
2565;DHT22;1292;48.020;7.822;2023-01-31T16:47:03;5.70;99.90
2565;DHT22;1292;48.020;7.822;2023-01-31T16:49:34;5.80;99.90
2565;DHT22;1292;48.020;7.822;2023-01-31T16:52:15;5.70;99.90
2565;DHT22;1292;48.020;7.822;2023-01-31T16:54:44;5.70;99.90
2565;DHT22;1292;48.020;7.822;2023-01-31T16:57:23;5.70;99.90
2565;DHT22;1292;48.020;7.822;2023-01-31T16:59:52;5.70;99.90
2565;DHT22;1292;48.020;7.822;2023-01-31T17:02:30;5.70;99.90
2565;DHT22;1292;48.020;7.822;2023-01-31T17:05:00;5.80;99.90
2565;DHT22;1292;48.020;7.822;2023-01-31T17:07:30;5.80;99.90
2565;DHT22;1292;48.020;7.822;2023-01-31T17:10:06;5.70;99.90
2565;DHT22;1292;48.020;7.822;2023-01-31T17:12:42;5.70;99.90
2565;DHT22;1292;48.020;7.822;2023-01-31T17:15:13;5.80;99.90
2565;DHT22;1292;48.020;7.822;2023-01-31T17:17:40;5.80;99.90
2565;DHT22;1292;48.020;7.822;2023-01-31T17:20:11;5.80;99.90
2565;DHT22;1292;48.020;7.822;2023-01-31T17:22:38;5.80;99.90
2565;DHT22;1292;48.020;7.822;2023-01-31T17:25:13;5.80;99.90
2565;DHT22;1292;48.020;7.822;2023-01-31T17:27:41;5.80;99.90
2565;DHT22;1292;48.020;7.822;2023-01-31T17:30:09;5.80;99.90
2565;DHT22;1292;48.020;7.822;2023-01-31T17:32:36;5.80;99.90
2565;DHT22;1292;48.020;7.822;2023-01-31T17:35:14;5.80;99.90
2565;DHT22;1292;48.020;7.822;2023-01-31T17:37:42;5.80;99.90
2565;DHT22;1292;48.020;7.822;2023-01-31T17:40:11;5.80;99.90
2565;DHT22;1292;48.020;7.822;2023-01-31T17:42:38;5.80;99.90
2565;DHT22;1292;48.020;7.822;2023-01-31T17:45:11;5.80;99.90
2565;DHT22;1292;48.020;7.822;2023-01-31T17:47:40;5.80;99.90
2565;DHT22;1292;48.020;7.822;2023-01-31T17:50:08;5.80;99.90
2565;DHT22;1292;48.020;7.822;2023-01-31T17:52:39;5.80;99.90
2565;DHT22;1292;48.020;7.822;2023-01-31T17:55:06;5.80;99.90
2565;DHT22;1292;48.020;7.822;2023-01-31T17:57:33;5.80;99.90
2565;DHT22;1292;48.020;7.822;2023-01-31T18:00:02;5.80;99.90
2565;DHT22;1292;48.020;7.822;2023-01-31T18:02:31;5.80;99.90
2565;DHT22;1292;48.020;7.822;2023-01-31T18:04:58;5.80;99.90
2565;DHT22;1292;48.020;7.822;2023-01-31T18:07:24;5.80;99.90
2565;DHT22;1292;48.020;7.822;2023-01-31T18:09:51;5.80;99.90
2565;DHT22;1292;48.020;7.822;2023-01-31T18:12:19;5.70;99.90
2565;DHT22;1292;48.020;7.822;2023-01-31T18:14:45;5.80;99.90
2565;DHT22;1292;48.020;7.822;2023-01-31T18:17:12;5.80;99.90
2565;DHT22;1292;48.020;7.822;2023-01-31T18:19:40;5.80;99.90
2565;DHT22;1292;48.020;7.822;2023-01-31T18:22:07;5.80;99.90
2565;DHT22;1292;48.020;7.822;2023-01-31T18:24:34;5.70;99.90
2565;DHT22;1292;48.020;7.822;2023-01-31T18:27:01;5.80;99.90
2565;DHT22;1292;48.020;7.822;2023-01-31T18:29:28;5.80;99.90
2565;DHT22;1292;48.020;7.822;2023-01-31T18:31:55;5.70;99.90
2565;DHT22;1292;48.020;7.822;2023-01-31T18:34:27;5.80;99.90
2565;DHT22;1292;48.020;7.822;2023-01-31T18:36:55;5.80;99.90
2565;DHT22;1292;48.020;7.822;2023-01-31T18:39:21;5.80;99.90
2565;DHT22;1292;48.020;7.822;2023-01-31T18:41:49;5.90;99.90
2565;DHT22;1292;48.020;7.822;2023-01-31T18:44:16;5.80;99.90
2565;DHT22;1292;48.020;7.822;2023-01-31T18:46:44;5.80;99.90
2565;DHT22;1292;48.020;7.822;2023-01-31T18:49:11;5.80;99.90
2565;DHT22;1292;48.020;7.822;2023-01-31T18:51:37;5.80;99.90
2565;DHT22;1292;48.020;7.822;2023-01-31T18:54:07;5.80;99.90
2565;DHT22;1292;48.020;7.822;2023-01-31T18:56:34;5.80;99.90
2565;DHT22;1292;48.020;7.822;2023-01-31T18:59:01;5.80;99.90
2565;DHT22;1292;48.020;7.822;2023-01-31T19:01:28;5.80;99.90
2565;DHT22;1292;48.020;7.822;2023-01-31T19:03:55;5.90;99.90
2565;DHT22;1292;48.020;7.822;2023-01-31T19:06:25;5.80;99.90
2565;DHT22;1292;48.020;7.822;2023-01-31T19:08:53;5.80;99.90
2565;DHT22;1292;48.020;7.822;2023-01-31T19:11:23;5.80;99.90
2565;DHT22;1292;48.020;7.822;2023-01-31T19:13:50;5.90;99.90
2565;DHT22;1292;48.020;7.822;2023-01-31T19:16:19;6.00;99.90
2565;DHT22;1292;48.020;7.822;2023-01-31T19:18:47;6.00;99.90
2565;DHT22;1292;48.020;7.822;2023-01-31T19:21:15;5.90;99.90
2565;DHT22;1292;48.020;7.822;2023-01-31T19:23:42;5.90;99.90
2565;DHT22;1292;48.020;7.822;2023-01-31T19:26:09;5.80;99.90
2565;DHT22;1292;48.020;7.822;2023-01-31T19:28:38;5.80;99.90
2565;DHT22;1292;48.020;7.822;2023-01-31T19:31:07;5.80;99.90
2565;DHT22;1292;48.020;7.822;2023-01-31T19:33:35;5.90;99.90
2565;DHT22;1292;48.020;7.822;2023-01-31T19:36:07;5.80;99.90
2565;DHT22;1292;48.020;7.822;2023-01-31T19:38:34;5.80;99.90
2565;DHT22;1292;48.020;7.822;2023-01-31T19:41:05;5.80;99.90
2565;DHT22;1292;48.020;7.822;2023-01-31T19:43:31;5.80;99.90
2565;DHT22;1292;48.020;7.822;2023-01-31T19:46:00;5.80;99.90
2565;DHT22;1292;48.020;7.822;2023-01-31T19:48:27;5.80;99.90
2565;DHT22;1292;48.020;7.822;2023-01-31T19:50:54;5.80;99.90
2565;DHT22;1292;48.020;7.822;2023-01-31T19:53:21;5.80;99.90
2565;DHT22;1292;48.020;7.822;2023-01-31T19:55:48;5.80;99.90
2565;DHT22;1292;48.020;7.822;2023-01-31T19:58:15;5.80;99.90
2565;DHT22;1292;48.020;7.822;2023-01-31T20:00:42;5.80;99.90
2565;DHT22;1292;48.020;7.822;2023-01-31T20:03:10;5.80;99.90
2565;DHT22;1292;48.020;7.822;2023-01-31T20:05:37;5.80;99.90
2565;DHT22;1292;48.020;7.822;2023-01-31T20:08:05;5.70;99.90
2565;DHT22;1292;48.020;7.822;2023-01-31T20:10:33;5.70;99.90
2565;DHT22;1292;48.020;7.822;2023-01-31T20:13:01;5.70;99.90
2565;DHT22;1292;48.020;7.822;2023-01-31T20:15:29;5.70;99.90
2565;DHT22;1292;48.020;7.822;2023-01-31T20:17:56;5.70;99.90
2565;DHT22;1292;48.020;7.822;2023-01-31T20:20:24;5.80;99.90
2565;DHT22;1292;48.020;7.822;2023-01-31T20:22:51;5.80;99.90
2565;DHT22;1292;48.020;7.822;2023-01-31T20:25:18;5.80;99.90
2565;DHT22;1292;48.020;7.822;2023-01-31T20:27:45;5.80;99.90
2565;DHT22;1292;48.020;7.822;2023-01-31T20:30:12;5.80;99.90
2565;DHT22;1292;48.020;7.822;2023-01-31T20:32:42;5.80;99.90
2565;DHT22;1292;48.020;7.822;2023-01-31T20:35:08;5.80;99.90
2565;DHT22;1292;48.020;7.822;2023-01-31T20:37:36;5.80;99.90
2565;DHT22;1292;48.020;7.822;2023-01-31T20:40:05;5.80;99.90
2565;DHT22;1292;48.020;7.822;2023-01-31T20:42:32;5.80;99.90
2565;DHT22;1292;48.020;7.822;2023-01-31T20:44:59;5.90;99.90
2565;DHT22;1292;48.020;7.822;2023-01-31T20:47:26;5.80;99.90
2565;DHT22;1292;48.020;7.822;2023-01-31T20:49:53;5.80;99.90
2565;DHT22;1292;48.020;7.822;2023-01-31T20:52:20;5.80;99.90
2565;DHT22;1292;48.020;7.822;2023-01-31T20:54:50;5.80;99.90
2565;DHT22;1292;48.020;7.822;2023-01-31T20:57:17;5.80;99.90
2565;DHT22;1292;48.020;7.822;2023-01-31T20:59:44;5.90;99.90
2565;DHT22;1292;48.020;7.822;2023-01-31T21:02:11;5.90;99.90
2565;DHT22;1292;48.020;7.822;2023-01-31T21:04:38;5.90;99.90
2565;DHT22;1292;48.020;7.822;2023-01-31T21:07:05;5.90;99.90
2565;DHT22;1292;48.020;7.822;2023-01-31T21:09:31;5.80;99.90
2565;DHT22;1292;48.020;7.822;2023-01-31T21:12:00;5.80;99.90
2565;DHT22;1292;48.020;7.822;2023-01-31T21:14:26;5.80;99.90
2565;DHT22;1292;48.020;7.822;2023-01-31T21:16:53;5.80;99.90
2565;DHT22;1292;48.020;7.822;2023-01-31T21:19:20;5.80;99.90
2565;DHT22;1292;48.020;7.822;2023-01-31T21:21:47;5.80;99.90
2565;DHT22;1292;48.020;7.822;2023-01-31T21:24:14;5.80;99.90
2565;DHT22;1292;48.020;7.822;2023-01-31T21:26:40;5.80;99.90
2565;DHT22;1292;48.020;7.822;2023-01-31T21:29:09;5.80;99.90
2565;DHT22;1292;48.020;7.822;2023-01-31T21:31:35;5.80;99.90
2565;DHT22;1292;48.020;7.822;2023-01-31T21:34:02;5.80;99.90
2565;DHT22;1292;48.020;7.822;2023-01-31T21:36:31;5.80;99.90
2565;DHT22;1292;48.020;7.822;2023-01-31T21:39:01;5.80;99.90
2565;DHT22;1292;48.020;7.822;2023-01-31T21:41:28;5.80;99.90
2565;DHT22;1292;48.020;7.822;2023-01-31T21:44:14;5.70;99.90
2565;DHT22;1292;48.020;7.822;2023-01-31T21:46:40;5.80;99.90
2565;DHT22;1292;48.020;7.822;2023-01-31T21:49:07;5.80;99.90
2565;DHT22;1292;48.020;7.822;2023-01-31T21:51:34;5.80;99.90
2565;DHT22;1292;48.020;7.822;2023-01-31T21:54:01;5.80;99.90
2565;DHT22;1292;48.020;7.822;2023-01-31T21:56:28;5.90;99.90
2565;DHT22;1292;48.020;7.822;2023-01-31T21:58:56;5.80;99.90
